Date,TemperatureHighF,TemperatureAvgF,TemperatureLowF,DewpointHighF,DewpointAvgF,DewpointLowF,HumidityHigh,HumidityAvg,HumidityLow,PressureMaxIn,PressureMinIn,WindSpeedMaxMPH,WindSpeedAvgMPH,GustSpeedMaxMPH,PrecipitationSumIn
2012-3-11,51.6,50.3,48.2,51.6,50.3,48.2,100,100,100,29.93,29.81,9,2,9,0.64
2012-3-12,74.6,58.0,48.5,52.3,49.1,43.5,100,76,33,29.95,29.75,17,4,17,0.04
2012-3-13,80.1,61.6,42.6,58.1,50.7,42.0,100,72,33,30.02,29.88,14,2,14,0.00
2012-3-14,79.8,68.9,61.8,63.8,60.9,55.9,94,77,55,29.95,29.84,15,6,21,0.00
2012-3-15,77.0,68.6,61.5,64.6,62.3,59.5,95,81,63,30.00,29.91,12,3,12,0.00
2012-3-16,81.2,70.1,62.6,65.6,62.5,59.5,97,78,49,29.95,29.84,15,4,16,0.00
2012-3-17,75.1,69.1,62.9,64.2,61.2,57.8,90,76,64,29.90,29.81,19,4,19,0.00
2012-3-18,73.5,69.4,64.3,61.6,59.1,56.0,80,70,63,29.86,29.76,16,5,16,0.00
2012-3-19,70.6,62.6,56.3,61.0,58.0,56.3,100,86,63,29.76,29.63,19,3,19,1.66
2012-3-20,59.3,56.8,55.6,58.0,56.7,55.6,100,99,94,29.87,29.69,17,1,17,0.61
2012-3-21,63.1,58.1,52.8,61.0,57.7,52.3,100,99,87,29.86,29.68,21,2,21,0.56
2012-3-22,63.9,52.9,44.5,55.3,49.6,44.5,100,90,54,29.94,29.81,20,2,20,0.39
2012-3-23,59.6,52.6,47.0,51.9,48.6,46.2,100,87,67,29.93,29.82,10,1,10,0.02
2012-3-24,75.4,60.1,49.5,52.5,48.0,44.2,89,68,34,30.00,29.91,14,1,14,0.00
2012-3-25,79.9,63.6,47.9,52.7,47.9,41.7,98,62,27,30.08,29.98,6,0,6,0.00
2012-3-26,80.9,65.9,49.4,57.8,52.6,48.2,100,66,35,30.06,29.85,12,1,12,0.00
2012-3-27,76.1,68.2,62.6,62.6,58.1,53.8,94,71,53,29.95,29.84,16,2,16,0.11
2012-3-28,79.6,69.2,54.7,63.5,60.1,54.5,100,75,50,29.98,29.81,14,1,14,0.00
2012-3-29,80.1,68.9,58.0,63.8,58.0,52.4,94,70,48,29.88,29.67,16,4,16,0.00
2012-3-30,77.6,67.7,57.5,63.6,56.6,45.7,99,70,33,29.79,29.68,14,1,14,0.00
2012-3-31,83.6,69.7,56.2,61.5,57.0,51.9,92,67,35,29.81,29.68,10,1,10,0.00
2012-4-1,86.1,74.1,62.4,68.8,63.7,58.6,97,72,44,29.68,29.44,14,3,14,0.00
2012-4-2,86.7,74.7,60.5,65.4,60.2,52.1,90,64,31,29.68,29.48,15,4,15,0.00
2012-4-3,70.6,64.5,58.3,60.3,56.3,53.3,90,75,65,29.85,29.67,13,2,13,0.00
2012-4-4,65.2,58.8,54.5,56.7,54.0,50.8,97,84,73,29.83,29.67,16,3,16,0.01
2012-4-5,62.4,52.6,41.8,54.5,45.6,32.6,98,79,35,30.04,29.71,14,3,15,0.00
2012-4-6,65.3,52.9,40.2,44.0,38.3,34.7,99,62,33,30.18,30.03,13,2,14,0.00
2012-4-7,61.3,54.1,45.2,54.5,45.0,35.9,91,72,58,30.33,30.01,13,2,17,0.05
2012-4-8,68.4,51.0,32.7,43.7,34.6,28.6,97,61,26,30.40,30.19,10,1,10,0.00
2012-4-9,72.7,58.2,38.9,45.5,37.0,25.7,94,50,23,30.20,30.07,8,1,8,0.00
2012-4-10,63.7,53.4,41.3,35.6,28.0,20.0,79,39,25,30.24,30.11,12,2,12,0.00
2012-4-11,58.9,48.5,39.1,34.3,25.7,20.9,69,42,25,30.34,30.19,12,2,12,0.00
2012-4-12,54.2,48.2,42.6,45.5,35.6,26.8,83,62,50,30.19,29.94,14,2,14,0.06
2012-4-13,74.9,62.4,52.5,64.3,56.3,43.0,95,81,63,29.94,29.78,15,3,15,0.10
2012-4-14,74.9,68.5,61.0,65.0,62.2,58.9,100,82,63,29.84,29.52,19,4,19,0.01
2012-4-15,72.5,67.1,53.2,62.8,53.0,34.2,91,63,30,29.62,29.44,24,7,24,0.04
2012-4-16,66.3,55.0,44.5,43.3,39.6,34.7,91,58,32,30.22,29.61,21,2,25,0.00
2012-4-17,71.8,58.1,42.3,47.8,43.8,39.8,92,62,36,30.30,30.14,9,1,9,0.00
2012-4-18,76.7,63.7,53.8,53.1,49.1,43.6,82,61,37,30.14,29.89,15,3,15,0.00
2012-4-19,77.4,65.4,51.0,56.0,50.4,46.0,84,60,38,29.89,29.64,20,5,20,0.00
2012-4-20,59.9,50.3,41.2,46.2,37.6,28.6,87,64,34,30.07,29.78,23,6,23,0.00
2012-4-21,69.9,48.6,32.1,44.2,36.9,30.0,98,68,32,30.08,29.92,11,1,11,0.00
2012-4-22,58.9,52.4,43.9,42.7,37.7,32.6,79,58,44,30.22,29.96,22,5,22,0.00
2012-4-23,67.1,51.0,35.9,44.3,36.8,29.8,98,64,27,30.23,29.97,15,2,15,0.00
2012-4-24,85.9,66.6,41.6,57.6,47.3,34.7,82,52,29,29.97,29.57,15,3,15,0.00
2012-4-25,91.8,77.8,64.8,60.2,55.0,44.4,74,49,27,29.68,29.51,13,3,13,0.00
2012-4-26,73.2,72.6,72.0,45.4,44.0,42.8,37,36,34,29.70,29.68,7,2,7,0.00
2012-5-15,84.1,76.8,67.6,54.6,51.4,46.3,63,43,27,29.98,29.92,10,1,10,0.00
2012-5-16,78.6,67.8,52.8,54.6,43.7,32.3,83,45,20,30.06,29.97,10,1,10,0.00
2012-5-17,84.3,70.2,51.6,57.9,51.7,45.5,88,54,38,30.00,29.85,12,2,12,0.00
2012-5-18,84.7,73.7,61.8,59.3,55.4,51.0,71,54,36,29.87,29.75,13,2,13,0.00
2012-5-19,84.5,75.6,68.9,61.6,56.7,52.1,65,53,35,29.88,29.77,19,4,19,0.00
2012-5-20,77.9,68.9,59.0,60.0,54.5,49.7,81,62,41,30.16,29.83,19,3,19,0.00
2012-5-21,73.9,63.0,53.2,51.1,43.3,37.8,77,51,29,30.26,30.10,13,2,13,0.00
2012-5-22,79.2,65.7,47.4,48.8,45.3,40.7,88,52,27,30.10,29.77,12,2,12,0.00
2012-5-23,88.4,75.2,60.2,62.2,55.4,46.9,63,51,38,29.77,29.45,23,4,23,0.00
2012-5-24,84.7,76.2,70.4,72.3,65.4,60.6,100,70,56,29.71,29.37,17,4,17,0.20
2012-5-25,88.6,74.3,64.2,74.1,68.3,64.2,100,84,56,29.89,29.70,22,3,22,1.98
2012-5-26,88.2,80.0,73.0,74.3,70.3,65.2,88,73,58,29.89,29.82,11,2,11,0.00
2012-5-27,88.2,79.6,71.1,67.4,61.4,53.2,85,56,34,29.86,29.67,17,4,17,0.00
2012-5-28,89.9,80.2,73.5,66.2,58.5,41.3,65,49,28,29.81,29.66,18,4,18,0.00
2012-5-29,84.3,75.0,63.7,61.7,53.1,42.8,65,47,34,29.89,29.78,11,2,11,0.00
2012-5-30,80.7,73.2,58.1,59.8,55.8,44.8,94,56,38,29.93,29.71,20,3,20,0.28
2012-5-31,65.5,59.8,53.5,60.2,52.3,46.0,100,77,56,29.99,29.73,20,6,20,0.02
2012-6-1,66.6,57.0,46.1,51.8,47.3,42.0,98,72,45,30.06,29.91,11,2,12,0.00
2012-6-2,80.1,65.2,48.9,63.3,53.6,46.2,97,69,37,29.92,29.79,10,1,10,0.00
2012-6-3,77.6,69.4,59.2,70.9,63.5,55.8,98,82,72,29.84,29.74,8,1,8,0.00
2012-6-4,89.9,77.5,61.6,72.4,63.1,50.8,100,67,28,29.84,29.73,17,3,17,0.01
2012-6-5,82.6,73.1,61.8,63.6,58.0,50.6,92,62,33,29.91,29.82,16,2,16,0.00
2012-6-6,83.6,72.7,59.6,59.5,55.8,51.8,81,57,34,30.00,29.87,12,1,12,0.00
2012-6-7,82.0,71.0,62.0,57.2,52.7,47.0,72,54,30,30.08,30.00,9,1,9,0.00
2012-6-10,88.8,82.7,78.3,67.1,66.2,64.7,67,58,45,29.70,29.64,15,2,15,0.00
2012-6-11,84.1,74.0,61.3,68.1,62.4,51.2,98,69,38,30.01,29.68,19,2,19,0.21
2012-6-12,81.1,69.7,55.6,61.2,52.6,45.9,98,60,30,30.15,30.01,14,2,14,0.00
2012-6-13,86.3,73.0,56.7,63.6,56.0,50.3,84,57,34,30.08,29.88,10,2,13,0.00
2012-6-14,90.1,78.5,66.3,65.1,61.9,55.8,78,58,40,29.92,29.76,15,3,15,0.00
2012-6-15,83.8,75.9,67.4,67.4,62.8,56.2,95,66,47,29.91,29.77,14,3,14,0.00
2012-6-16,88.6,79.2,70.8,71.7,65.5,58.5,92,65,37,29.96,29.87,15,2,15,0.00
2012-6-17,93.4,81.2,68.4,72.8,68.0,60.9,96,67,36,29.94,29.65,17,3,17,0.00
2012-6-18,94.5,84.7,75.8,68.8,65.9,61.3,77,55,38,29.69,29.61,23,6,23,0.00
2012-6-19,90.3,82.1,74.0,69.4,65.6,61.8,80,59,40,29.78,29.69,18,5,21,0.00
2012-6-20,90.3,81.9,75.1,69.2,66.0,63.4,81,60,44,29.86,29.78,21,5,21,0.00
2012-6-21,82.4,72.7,63.7,70.3,63.4,53.3,100,76,41,30.04,29.86,22,2,22,1.00
2012-6-22,84.7,73.6,60.5,63.6,59.0,55.1,92,63,39,30.05,29.89,11,0,11,0.00
2012-6-23,90.7,76.9,67.1,74.0,64.1,55.8,73,65,49,29.94,29.79,17,2,17,0.00
2012-6-24,97.1,86.0,75.3,77.3,67.8,63.8,69,56,38,29.87,29.79,13,2,13,0.00
2012-6-25,97.8,84.8,72.3,81.0,69.6,62.2,88,62,35,29.85,29.77,15,2,15,0.00
2012-6-26,93.2,81.6,69.8,69.4,61.9,51.3,64,52,42,29.85,29.72,14,3,14,0.00
2012-6-27,99.0,87.0,75.4,77.2,66.2,59.1,65,51,37,29.81,29.70,14,4,14,0.00
2012-6-28,102.3,89.2,75.1,66.8,62.4,58.8,69,43,25,29.88,29.79,14,3,14,0.00
2012-6-29,100.2,89.0,79.6,67.3,61.3,57.3,56,41,27,29.85,29.70,15,3,15,0.00
2012-6-30,99.7,87.9,78.1,67.4,62.7,58.8,58,44,29,29.85,29.71,15,3,15,0.00
2012-7-1,97.3,85.7,76.5,67.2,62.2,55.9,62,47,26,29.90,29.79,12,2,12,0.00
2012-7-2,95.4,84.9,74.2,72.5,66.6,63.6,74,56,36,29.93,29.82,17,2,17,0.00
2012-7-3,97.8,87.1,76.0,70.2,66.1,60.6,73,52,31,29.88,29.76,14,3,14,0.00
2012-7-4,99.9,88.1,77.4,66.4,60.1,56.3,56,40,26,29.87,29.79,15,3,15,0.00
2012-7-5,101.0,88.8,78.3,66.7,60.5,55.5,57,40,23,29.94,29.83,12,2,12,0.00
2012-7-6,102.3,87.7,70.3,67.3,60.7,55.9,73,44,22,29.95,29.85,13,2,13,0.00
2012-7-7,105.1,88.3,71.8,71.7,62.0,56.0,67,45,21,29.96,29.85,20,2,20,0.00
2012-7-8,92.7,82.0,75.8,72.3,67.2,63.1,71,61,42,29.97,29.89,15,2,15,0.00
2012-7-9,86.7,79.3,72.1,71.7,64.6,58.3,78,62,40,30.00,29.93,13,2,13,0.00
2012-7-10,91.4,80.5,66.8,66.5,59.9,53.8,81,52,32,30.01,29.92,14,2,14,0.00
2012-7-11,94.3,79.4,70.1,68.3,61.2,54.1,74,56,31,29.99,29.91,9,1,10,0.00
2012-7-12,94.3,81.7,69.3,68.2,62.4,56.7,67,53,33,29.96,29.88,23,1,23,0.03
2012-7-13,87.4,79.0,73.0,67.7,63.6,61.0,70,60,43,30.01,29.90,12,1,12,0.02
2012-7-14,96.1,81.9,63.7,71.6,62.0,55.7,92,56,27,30.00,29.89,11,0,11,0.00
2012-7-15,97.1,83.2,69.9,70.6,60.1,52.5,73,48,24,30.00,29.88,18,1,18,0.00
2012-7-16,95.1,83.9,71.3,70.2,64.2,57.8,75,53,32,29.93,29.78,12,2,13,0.00
2012-7-17,99.4,87.2,75.3,70.5,62.7,57.6,68,46,27,29.84,29.74,15,2,15,0.00
2012-7-18,103.6,91.3,79.2,68.0,62.1,57.3,60,40,24,29.86,29.73,14,3,14,0.00
2012-7-19,101.7,88.3,74.7,72.3,64.0,54.5,72,48,26,29.93,29.81,17,3,17,0.34
2012-7-20,93.8,83.1,72.0,69.5,60.4,49.2,72,49,26,30.01,29.92,15,2,15,0.00
2012-7-21,97.8,82.2,66.0,69.6,61.8,54.7,87,55,26,30.03,29.92,11,1,11,0.00
2012-7-22,102.0,87.7,72.1,68.7,59.3,51.7,63,42,19,30.00,29.92,9,1,10,0.00
2012-7-23,103.1,89.9,77.6,69.6,61.5,54.9,58,40,25,29.99,29.87,12,2,12,0.00
2012-7-24,101.2,90.4,79.8,69.6,63.6,59.4,61,43,27,29.91,29.75,13,2,14,0.00
2012-7-25,103.8,91.9,81.6,68.4,63.4,59.4,56,40,26,29.77,29.58,19,4,19,0.00
2012-7-26,93.8,81.2,73.3,74.9,67.7,56.5,95,67,31,29.84,29.68,25,1,25,0.31
2012-7-27,93.4,82.3,70.8,66.6,58.5,52.0,68,47,26,30.01,29.83,14,2,14,0.00
2012-7-28,98.0,82.7,67.4,66.7,59.3,52.5,74,48,27,30.06,29.91,11,2,11,0.00
2012-7-29,106.0,89.4,73.7,65.9,59.8,54.0,56,39,23,29.93,29.75,14,2,14,0.00
2012-7-30,91.8,84.7,77.4,71.3,65.8,62.1,68,54,39,29.87,29.76,18,2,18,0.00
2012-7-31,99.0,86.2,75.4,74.5,67.1,59.7,87,57,31,29.90,29.81,11,1,11,0.11
2012-8-1,98.5,86.5,74.6,69.9,64.8,60.3,68,50,31,29.85,29.71,14,1,14,0.00
2012-8-2,93.6,81.6,72.3,74.0,66.9,62.2,88,63,39,29.78,29.66,26,2,26,0.25
2012-8-3,95.1,84.3,71.8,74.6,68.3,65.4,87,61,40,29.78,29.68,13,1,13,0.00
2012-8-4,91.4,83.8,75.4,71.3,67.4,61.5,68,58,50,29.99,29.66,19,3,19,0.00
2012-8-5,89.7,77.3,62.7,64.4,54.4,44.5,80,49,25,30.15,29.99,17,2,17,0.00
2012-8-6,95.4,78.5,60.2,63.0,52.3,46.5,72,45,21,30.10,29.94,17,1,17,0.00
2012-8-7,101.5,83.7,64.0,60.8,52.7,46.9,64,39,17,29.95,29.84,8,1,9,0.00
2012-8-8,99.9,82.3,71.8,64.2,59.3,53.5,68,48,25,29.91,29.74,45,2,45,0.01
2012-8-9,84.9,76.8,68.6,67.3,62.1,55.0,79,61,49,29.92,29.82,17,4,18,0.00
2012-8-10,81.8,72.1,62.4,59.5,52.4,45.5,76,53,32,30.02,29.92,19,4,19,0.00
2012-8-11,87.4,72.3,53.3,59.7,51.0,44.9,82,51,27,30.05,29.89,9,1,9,0.02
2012-8-12,94.9,79.4,67.4,63.2,56.9,51.8,68,49,27,29.92,29.73,14,3,14,0.01
2012-8-13,73.5,68.0,56.3,63.4,57.6,49.2,82,70,56,30.01,29.85,19,4,19,0.00
2012-8-14,71.6,63.4,56.5,62.5,57.8,50.4,91,82,64,30.06,29.91,9,1,9,0.11
2012-8-15,93.4,75.8,57.0,69.2,62.6,54.7,96,68,38,29.92,29.74,13,1,13,0.01
2012-8-16,82.0,77.9,73.2,67.5,63.8,55.5,73,62,47,29.93,29.77,19,5,19,0.00
2012-8-26,82.8,77.8,70.9,75.4,69.9,65.7,92,77,68,29.99,29.89,12,2,12,0.12
2012-8-27,90.7,75.7,61.8,74.0,62.0,45.0,98,68,25,30.11,29.99,11,2,13,0.01
2012-8-28,93.4,75.4,56.7,68.0,56.1,50.2,88,56,26,30.12,29.94,10,1,10,0.00
2012-8-29,94.7,77.6,60.4,66.9,56.7,49.3,83,53,27,29.99,29.86,9,1,9,0.00
2012-8-30,96.6,80.1,64.8,60.6,53.3,41.6,64,42,21,29.94,29.82,3,1,13,0.00
2012-8-31,79.2,73.5,69.9,71.6,66.5,53.8,100,81,43,29.89,29.74,12,5,29,2.25
2012-9-1,80.9,73.9,71.1,74.2,71.1,66.5,100,92,74,29.89,29.72,12,8,25,2.86
2012-9-2,89.5,76.7,64.7,70.7,66.5,62.9,95,73,46,29.92,29.82,3,1,9,0.00
2012-9-3,94.0,82.2,69.1,74.3,70.1,62.5,95,69,49,29.86,29.75,11,1,25,0.00
2012-9-4,93.2,82.9,73.9,75.5,69.3,61.9,91,64,50,29.84,29.71,7,0,13,0.06
2012-9-5,94.0,82.3,67.9,69.6,65.8,59.9,80,59,37,29.84,29.69,11,2,11,0.00
2012-9-6,90.3,80.2,70.6,67.6,61.9,55.7,68,54,41,29.93,29.76,12,2,12,0.00
2012-9-7,82.2,74.3,64.5,69.6,64.7,59.3,87,73,59,29.91,29.73,34,5,34,0.43
2012-9-8,76.5,64.4,53.3,54.7,50.3,46.0,87,63,35,30.14,29.99,5,2,14,0.00
2012-9-9,74.4,63.4,53.2,50.7,47.5,44.2,74,57,40,30.16,29.97,6,2,14,0.00
2012-9-10,79.9,64.6,48.0,57.9,50.9,44.0,89,64,39,30.15,30.00,4,1,13,0.00
2012-9-11,88.0,74.0,59.2,61.3,54.6,50.0,81,54,28,30.03,29.92,6,2,16,0.00
2012-9-12,85.5,74.9,66.0,64.9,59.4,54.9,73,59,45,30.02,29.94,6,3,15,0.00
2012-9-13,73.7,56.7,54.2,59.9,52.1,45.3,94,86,51,30.35,30.03,15,4,19,0.59
2012-9-14,68.6,58.4,52.8,56.0,50.8,43.2,100,78,50,30.36,30.27,13,2,13,0.13
2012-9-15,71.1,63.2,52.0,63.0,56.7,45.6,86,79,74,30.28,30.10,13,1,13,0.00
2012-9-16,74.2,65.6,58.4,65.2,61.1,55.2,96,86,72,30.09,29.93,2,0,7,0.00
2012-9-17,77.4,66.6,55.0,67.0,60.4,49.0,98,82,57,29.99,29.80,10,2,19,0.10
2012-9-18,69.8,60.7,47.7,49.2,42.8,38.6,91,54,34,30.10,29.99,13,2,13,0.01
2012-9-19,81.6,66.7,53.1,53.7,49.1,41.6,71,55,35,30.02,29.84,16,3,18,0.00
2012-9-20,75.6,64.7,49.6,53.6,42.3,37.0,69,46,27,30.02,29.92,12,1,12,0.00
2012-9-21,79.8,65.3,49.5,54.5,42.5,30.5,73,47,22,29.95,29.81,17,2,17,0.00
2012-9-22,66.1,55.9,42.3,42.3,33.8,22.2,70,46,24,30.26,29.92,19,3,19,0.00
2012-9-23,67.4,52.7,36.6,43.6,35.4,27.7,78,54,32,30.33,30.21,11,1,11,0.00
2012-9-24,77.2,62.7,47.3,60.0,49.3,36.8,69,62,50,30.22,29.78,12,1,12,0.00
2012-9-25,82.8,74.2,66.6,62.7,60.3,57.4,84,63,45,29.87,29.72,14,2,14,0.03
2012-9-26,74.2,67.2,62.6,66.1,62.2,59.2,96,85,68,30.07,29.80,9,1,9,0.28
2012-9-27,66.0,65.6,65.2,63.3,62.9,62.6,93,91,90,30.08,30.07,2,0,2,0.08
2012-9-28,70.6,62.3,54.5,63.5,53.4,46.8,97,73,58,30.15,30.07,7,1,11,0.00
2012-9-29,72.3,58.7,47.1,55.4,47.5,43.4,90,69,41,30.14,30.01,10,1,10,0.00
2012-9-30,74.6,62.5,51.1,55.4,49.7,46.0,86,65,43,30.02,29.85,8,1,8,0.00
2012-10-1,75.3,65.7,56.5,54.9,48.2,39.7,70,54,40,29.87,29.77,16,3,16,0.00
2012-10-2,73.3,59.5,49.1,52.3,43.1,38.1,73,56,36,29.92,29.84,12,2,12,0.00
2012-10-3,76.1,60.3,42.9,54.4,45.4,38.7,88,61,33,29.96,29.88,10,1,10,0.00
2012-10-4,63.5,56.0,49.1,51.3,45.0,37.5,74,67,60,30.23,29.95,18,4,18,0.01
2012-10-5,51.9,46.3,32.9,42.5,34.7,24.9,74,64,54,30.30,30.20,18,4,18,0.02
2012-10-6,44.5,41.5,33.1,34.5,29.1,25.4,78,62,50,30.35,30.28,13,2,13,0.00
2012-10-7,56.2,43.4,29.3,34.0,27.0,19.8,76,54,34,30.33,30.15,9,1,9,0.00
2012-10-8,61.0,48.2,34.4,38.3,32.5,25.3,74,56,39,30.16,29.96,17,3,17,0.00
2012-10-9,65.5,53.1,42.2,50.8,40.6,27.8,74,63,54,30.12,29.86,18,4,18,0.00
2012-10-10,62.7,47.8,29.8,40.4,30.3,21.8,77,53,32,30.28,30.12,9,0,9,0.00
2012-10-11,70.9,56.6,41.9,57.2,44.8,29.6,78,65,53,30.16,30.02,9,1,9,0.00
2012-10-12,61.2,54.5,49.4,55.8,43.4,33.5,92,67,54,30.27,30.04,16,4,16,0.12
2012-10-13,68.1,64.8,58.3,68.1,64.0,56.0,100,97,91,30.07,29.60,15,3,15,0.86
2012-10-14,67.8,61.8,52.3,63.0,52.2,39.3,98,73,44,29.98,29.51,21,3,21,0.01
2012-10-15,73.9,60.3,43.9,53.6,47.5,37.7,84,64,48,30.00,29.80,9,1,9,0.00
2012-10-16,78.5,68.2,59.5,53.8,51.0,48.3,71,55,41,29.81,29.48,21,5,21,0.00
2012-10-17,65.0,60.0,49.5,59.0,47.7,29.1,87,66,41,29.64,29.39,10,2,17,0.07
2012-10-18,59.5,51.6,44.3,35.2,29.8,26.0,57,43,32,29.69,29.62,23,4,23,0.00
2012-10-19,52.8,49.7,41.2,40.6,37.9,33.9,77,64,56,29.82,29.65,22,4,22,0.00
2012-10-20,69.4,52.3,36.0,49.3,40.5,31.3,90,67,41,29.85,29.71,11,1,11,0.00
2012-10-21,75.4,65.1,51.7,67.7,57.9,41.7,84,78,62,29.79,29.71,12,2,12,0.00
2012-10-22,78.1,72.7,67.9,69.8,67.0,64.2,90,83,73,29.80,29.69,16,4,16,0.00
2012-10-23,79.0,72.5,68.9,68.4,66.4,64.1,89,82,67,29.78,29.67,21,4,21,0.00
2012-10-24,82.0,73.2,67.6,69.8,65.5,59.2,92,78,62,29.76,29.67,17,5,17,0.00
2012-10-25,72.1,51.9,37.8,63.3,45.2,29.1,90,78,64,30.27,29.60,23,7,23,0.09
2012-10-26,44.8,38.5,32.9,31.5,27.7,23.5,71,65,55,30.48,30.27,18,5,18,0.00
2012-10-27,44.9,35.6,24.7,32.2,26.0,18.2,83,69,54,30.44,30.28,10,1,10,0.00
2012-10-28,51.6,37.9,24.8,34.7,26.5,18.6,82,64,46,30.38,30.27,6,0,7,0.00
2012-10-29,54.7,44.4,35.6,35.1,29.5,25.6,68,56,44,30.33,30.12,11,1,11,0.00
2012-10-30,56.5,44.6,36.0,35.5,29.8,24.2,71,57,41,30.12,29.98,14,1,14,0.00
2012-10-31,46.1,44.5,40.6,32.2,30.3,26.6,58,57,56,30.03,30.02,3,0,3,0.00
2012-11-1,74.4,55.6,35.5,44.6,37.3,25.7,71,52,32,30.02,29.87,11,1,15,0.00
2012-11-2,64.2,52.6,42.9,44.5,38.1,31.7,72,59,47,29.95,29.83,16,3,16,0.00
2012-11-3,55.9,44.7,33.7,38.2,31.0,23.0,72,59,45,30.20,29.91,14,4,14,0.00
2012-11-4,60.2,50.3,30.1,42.9,36.6,23.0,82,60,50,30.24,30.03,9,1,9,0.00
2012-11-5,52.9,45.9,41.5,42.8,40.8,39.1,92,83,61,30.11,29.94,16,4,16,0.01
2012-11-6,58.3,47.6,40.5,45.1,35.7,24.2,92,67,39,30.09,29.98,22,2,22,0.00
2012-11-7,54.5,42.8,33.5,35.0,28.5,20.8,68,57,44,30.18,30.06,14,1,14,0.00
2012-11-8,68.3,51.2,36.0,43.4,37.1,29.5,79,60,40,30.12,29.88,14,2,14,0.00
2012-11-9,73.5,61.6,48.2,59.2,50.9,39.2,78,68,60,29.89,29.73,16,4,16,0.00
2012-11-10,72.7,68.2,64.5,59.2,54.5,49.4,74,62,48,29.78,29.65,24,7,24,0.00
2012-11-11,67.8,41.8,27.3,56.0,36.1,19.5,90,81,60,30.23,29.61,15,3,18,1.41
2012-11-12,45.2,32.2,24.1,27.8,20.3,13.1,78,63,41,30.46,30.23,15,1,15,0.01
2012-11-13,53.5,39.0,23.5,36.9,26.6,14.5,75,62,48,30.47,30.35,7,0,7,0.00
2012-11-14,56.2,43.2,28.4,34.6,26.1,18.2,70,52,33,30.41,30.27,8,1,8,0.00
2012-11-15,54.4,44.0,33.5,36.4,29.7,24.2,72,57,49,30.39,30.26,9,1,9,0.00
2012-11-16,58.3,41.7,28.4,44.0,31.5,23.1,84,68,47,30.47,30.37,6,0,6,0.00
2012-11-17,60.2,45.4,31.5,40.4,31.3,25.1,81,60,35,30.40,30.27,13,2,13,0.00
2012-11-18,62.6,51.2,40.2,37.9,33.3,27.1,61,51,39,30.28,30.13,13,2,13,0.00
2012-11-19,63.2,54.4,47.6,49.5,44.2,34.6,82,69,47,30.15,30.04,16,3,16,0.01
2012-11-20,62.9,46.9,35.8,47.3,38.5,29.6,87,73,52,30.22,30.09,9,1,9,0.00
2012-11-21,70.4,54.5,35.3,49.6,40.4,29.6,85,62,35,30.22,29.96,12,2,12,0.00
2012-11-22,57.5,55.9,54.1,41.5,39.1,37.2,55,53,52,29.97,29.88,15,5,15,0.00
2012-11-23,44.9,35.1,28.1,32.7,18.4,8.3,69,51,38,30.48,30.22,8,3,26,0.00
2012-11-24,44.6,39.5,18.9,24.9,20.3,4.6,60,46,40,30.44,29.93,13,3,13,0.00
2012-11-25,55.7,44.8,36.3,32.4,26.8,21.0,63,50,40,30.03,29.91,14,2,14,0.00
2012-11-26,42.5,34.1,22.5,28.1,23.5,13.6,71,65,52,30.48,30.03,21,6,21,0.00
2012-11-27,40.1,27.4,12.8,22.8,15.7,5.8,76,62,47,30.49,30.32,9,1,9,0.00
2012-11-28,52.5,37.7,19.4,34.6,24.5,11.2,75,59,42,30.44,30.18,9,1,9,0.00
2012-11-29,61.5,49.1,39.1,44.2,35.6,28.2,69,60,51,30.19,29.97,14,3,14,0.00
2012-11-30,60.9,50.3,39.3,43.6,37.4,29.6,70,62,51,30.07,30.00,11,2,11,0.00
2012-12-1,67.1,59.1,51.7,60.0,54.0,46.8,92,83,76,29.99,29.76,8,1,10,0.00
2012-12-2,64.2,53.1,41.3,57.2,49.8,40.0,100,89,72,30.02,29.83,6,1,6,0.01
2012-12-3,69.9,62.7,52.5,60.0,53.7,35.4,91,73,50,30.01,29.70,24,6,24,0.00
2012-12-4,60.4,46.4,32.2,36.6,28.1,17.0,64,50,30,30.31,30.01,10,2,10,0.00
2012-12-5,60.4,44.5,29.7,38.0,27.6,19.6,72,53,33,30.33,30.02,11,2,11,0.00
2012-12-6,53.9,47.0,41.5,44.0,36.0,29.7,78,66,54,30.02,29.85,9,2,9,0.00
2012-12-7,49.5,45.9,43.6,45.2,42.5,40.6,92,88,81,29.93,29.83,5,2,11,0.00
2012-12-8,43.1,40.9,36.3,39.8,37.3,33.7,96,87,81,30.00,29.88,10,2,11,0.03
2012-12-9,42.9,35.7,20.5,41.6,30.9,10.0,98,83,63,30.09,29.82,17,3,18,0.01
2012-12-10,28.5,21.7,16.1,17.0,11.4,4.7,69,64,58,30.14,30.05,16,2,16,0.00
2012-12-11,44.5,30.2,19.1,25.4,15.5,8.2,63,55,42,30.18,30.05,8,1,8,0.00
2012-12-12,48.8,36.5,26.9,23.2,15.1,9.5,59,43,26,30.25,30.13,18,3,18,0.00
2012-12-13,55.7,43.6,36.3,24.2,19.0,11.7,47,37,28,30.17,30.09,16,4,16,0.00
2012-12-14,52.0,45.7,39.3,38.4,28.5,21.8,81,51,43,30.12,29.69,17,3,17,0.36
2012-12-15,52.6,47.1,35.0,46.2,42.5,31.5,90,84,78,29.72,29.48,17,3,17,0.06
2012-12-16,37.8,35.1,31.2,37.0,33.8,29.0,97,95,89,29.80,29.69,9,2,9,0.01
2012-12-17,46.2,37.3,33.4,39.7,34.0,28.2,100,88,74,29.80,29.69,13,2,13,0.00
2012-12-18,55.7,42.4,32.4,41.2,32.3,22.5,82,68,47,29.88,29.61,14,2,14,0.00
2012-12-19,43.5,39.8,35.9,39.3,33.7,28.4,90,79,74,29.90,29.42,21,4,21,0.08
2012-12-20,37.5,27.1,22.5,34.8,23.7,16.7,94,87,77,30.27,29.38,24,5,27,0.01
2012-12-21,36.9,26.3,16.1,26.3,18.3,10.8,81,72,60,30.41,30.27,5,0,7,0.04
2012-12-22,53.1,35.5,25.1,32.6,22.1,15.2,68,58,44,30.27,29.96,10,1,10,0.00
2012-12-23,36.9,29.4,23.5,28.1,21.8,16.8,81,73,62,30.01,29.92,11,3,11,0.00
2012-12-24,25.3,20.2,17.5,19.1,13.3,10.9,82,74,70,30.19,29.97,13,5,19,0.00
2012-12-25,21.0,17.8,12.6,15.4,11.1,4.5,81,75,67,30.34,30.18,20,8,20,0.00
2012-12-26,17.2,11.0,9.3,10.5,4.3,2.1,77,74,70,30.31,30.26,14,6,14,0.00
2012-12-27,36.5,26.4,17.3,25.9,18.1,9.7,79,71,62,30.22,29.97,3,1,10,0.00
2012-12-28,30.0,26.7,22.4,23.4,19.9,14.7,78,75,71,30.11,29.97,13,2,13,0.00
2012-12-29,35.5,24.5,18.1,21.4,15.1,9.0,77,68,55,30.36,30.11,13,2,13,0.00
2012-12-30,44.8,33.4,22.4,27.9,19.5,13.4,72,57,43,30.37,30.15,16,4,16,0.00
2012-12-31,36.2,31.7,22.5,29.1,23.8,19.0,88,74,51,30.19,30.05,13,3,13,0.12
2013-1-1,22.4,16.9,5.8,19.1,11.3,-1.3,87,78,68,30.35,30.18,14,2,14,0.00